Time;durP1;ratioP1;P1;durP2;ratioP2;P2;SDS_P1;SDS_P2;PMS_P1;PMS_P2;Temp;Humidity;BMP_temperature;BMP_pressure;BME280_temperature;BME280_humidity;BME280_pressure;Samples;Min_cycle;Max_cycle;Signal;HPM_P1;HPM_P2
2022/12/07 00:01:40;;;;;;;17.30;12.03;;;6.80;99.90;;;;;;5033192;28;20864;-69
2022/12/07 00:04:08;;;;;;;13.27;10.17;;;6.80;99.90;;;;;;5040093;28;20458;-71
2022/12/07 00:06:42;;;;;;;15.87;11.50;;;6.80;99.90;;;;;;5035108;28;20891;-68
2022/12/07 00:09:11;;;;;;;15.10;11.60;;;6.80;99.90;;;;;;5035067;28;20449;-69
2022/12/07 00:11:37;;;;;;;18.23;12.27;;;6.80;99.90;;;;;;5033444;28;20430;-69
2022/12/07 00:14:06;;;;;;;19.10;12.00;;;6.80;99.90;;;;;;5039538;28;20487;-69
2022/12/07 00:16:33;;;;;;;19.67;11.80;;;6.80;99.90;;;;;;5035291;28;20271;-69
2022/12/07 00:18:59;;;;;;;20.10;11.67;;;6.80;99.90;;;;;;5034734;28;20446;-69
2022/12/07 00:21:27;;;;;;;15.00;11.40;;;6.80;99.90;;;;;;5036107;28;20591;-69
2022/12/07 00:23:54;;;;;;;20.30;11.50;;;6.80;99.90;;;;;;5037669;28;20208;-69
2022/12/07 00:26:23;;;;;;;18.50;11.70;;;6.80;99.90;;;;;;5033177;28;20537;-69
2022/12/07 00:28:51;;;;;;;17.30;12.23;;;6.70;99.90;;;;;;5037694;28;20542;-68
2022/12/07 00:31:19;;;;;;;17.20;12.20;;;6.80;99.90;;;;;;5033298;28;20547;-68
2022/12/07 00:33:45;;;;;;;13.93;11.30;;;6.70;99.90;;;;;;5038226;28;20475;-69
2022/12/07 00:36:14;;;;;;;18.10;12.87;;;6.70;99.90;;;;;;5036184;28;20469;-69
2022/12/07 00:38:40;;;;;;;14.43;10.93;;;6.60;99.90;;;;;;5019324;28;20963;-69
2022/12/07 00:41:11;;;;;;;18.53;13.27;;;6.70;99.90;;;;;;5035298;28;20521;-68
2022/12/07 00:43:38;;;;;;;19.77;13.13;;;6.60;99.90;;;;;;5037650;28;20454;-69
2022/12/07 00:46:04;;;;;;;16.27;11.63;;;6.60;99.90;;;;;;5038283;28;20464;-68
2022/12/07 00:48:30;;;;;;;22.43;12.37;;;6.60;99.90;;;;;;5033838;28;20446;-68
2022/12/07 00:50:55;;;;;;;17.17;12.80;;;6.60;99.90;;;;;;5036420;28;20895;-69
2022/12/07 00:53:22;;;;;;;15.00;11.73;;;6.60;99.90;;;;;;5038242;28;20473;-69
2022/12/07 00:55:48;;;;;;;19.57;11.63;;;6.60;99.90;;;;;;5039070;28;20184;-69
2022/12/07 00:58:14;;;;;;;18.53;12.33;;;6.60;99.90;;;;;;5038254;28;20445;-69
2022/12/07 01:00:41;;;;;;;19.40;13.13;;;6.70;99.90;;;;;;5020819;28;20266;-68
2022/12/07 01:03:09;;;;;;;17.63;13.33;;;6.70;99.90;;;;;;5039489;28;20666;-69
2022/12/07 01:05:35;;;;;;;16.23;11.87;;;6.60;99.90;;;;;;5033704;28;20511;-69
2022/12/07 01:08:00;;;;;;;15.63;11.43;;;6.60;99.90;;;;;;5036033;28;20446;-69
2022/12/07 01:10:27;;;;;;;21.57;12.57;;;6.70;99.90;;;;;;5034946;28;20196;-69
2022/12/07 01:12:53;;;;;;;17.93;12.23;;;6.60;99.90;;;;;;5038392;28;20180;-67
2022/12/07 01:15:18;;;;;;;17.00;12.07;;;6.50;99.90;;;;;;5032664;28;20489;-69
2022/12/07 01:17:44;;;;;;;21.90;13.17;;;6.50;99.90;;;;;;5036835;28;20789;-68
2022/12/07 01:20:10;;;;;;;18.70;12.87;;;6.50;99.90;;;;;;5033384;28;21361;-68
2022/12/07 01:22:41;;;;;;;16.40;11.37;;;6.50;99.90;;;;;;5033775;28;20645;-68
2022/12/07 01:25:09;;;;;;;18.13;12.67;;;6.60;99.90;;;;;;5033043;28;20503;-69
2022/12/07 01:27:35;;;;;;;19.07;13.17;;;6.50;99.90;;;;;;5034981;28;20845;-69
2022/12/07 01:30:01;;;;;;;20.33;13.20;;;6.60;99.90;;;;;;5036530;28;20416;-68
2022/12/07 01:32:27;;;;;;;17.67;13.67;;;6.60;99.90;;;;;;5034103;28;20864;-69
2022/12/07 01:34:52;;;;;;;16.40;11.57;;;6.50;99.90;;;;;;5019279;28;20496;-69
2022/12/07 01:37:18;;;;;;;18.43;12.33;;;6.50;99.90;;;;;;5035175;28;20195;-68
2022/12/07 01:39:44;;;;;;;17.73;13.00;;;6.50;99.90;;;;;;5036701;28;20187;-69
2022/12/07 01:42:10;;;;;;;18.30;13.17;;;6.50;99.90;;;;;;5036005;28;20211;-68
2022/12/07 01:45:13;;;;;;;18.03;13.67;;;6.50;99.90;;;;;;5020763;28;20218;-70
2022/12/07 01:47:40;;;;;;;19.27;14.00;;;6.60;99.90;;;;;;5029776;28;20438;-70
2022/12/07 01:50:06;;;;;;;17.00;12.47;;;6.50;99.90;;;;;;5036691;28;20466;-70
2022/12/07 01:52:34;;;;;;;16.40;12.47;;;6.50;99.90;;;;;;5032260;28;20454;-70
2022/12/07 01:55:04;;;;;;;20.40;14.00;;;6.60;99.90;;;;;;5034374;28;20475;-69
2022/12/07 01:57:32;;;;;;;16.30;12.53;;;6.60;99.90;;;;;;5034893;28;20446;-69
2022/12/07 01:59:59;;;;;;;19.83;13.40;;;6.60;99.90;;;;;;5034449;28;20965;-68
2022/12/07 02:02:32;;;;;;;20.00;13.50;;;6.70;99.90;;;;;;5033069;28;20947;-70
2022/12/07 02:04:59;;;;;;;18.80;14.40;;;6.70;99.90;;;;;;5036608;28;21150;-70
2022/12/07 02:07:26;;;;;;;22.47;14.73;;;6.50;99.90;;;;;;5013381;28;20439;-70
2022/12/07 02:09:52;;;;;;;19.80;14.20;;;6.60;99.90;;;;;;5035457;28;21079;-70
2022/12/07 02:12:18;;;;;;;20.53;14.30;;;6.60;99.90;;;;;;5034530;28;20458;-70
2022/12/07 02:14:44;;;;;;;17.80;13.10;;;6.60;99.90;;;;;;5032773;28;20219;-70
2022/12/07 02:17:19;;;;;;;21.00;13.40;;;6.60;99.90;;;;;;5031452;28;20442;-70
2022/12/07 02:20:17;;;;;;;21.73;13.80;;;6.50;99.90;;;;;;5016925;28;20206;-70
2022/12/07 02:22:53;;;;;;;18.13;12.50;;;6.50;99.90;;;;;;5034308;28;20849;-71
2022/12/07 02:26:08;;;;;;;22.63;12.97;;;6.50;99.90;;;;;;5035949;28;20461;-70
2022/12/07 02:28:39;;;;;;;18.73;12.83;;;6.50;99.90;;;;;;5036162;28;20422;-69
2022/12/07 02:31:18;;;;;;;21.90;14.37;;;6.40;99.90;;;;;;5036300;28;20445;-69
2022/12/07 02:33:53;;;;;;;19.93;13.20;;;6.40;99.90;;;;;;5033241;28;20816;-69
2022/12/07 02:36:30;;;;;;;23.70;14.47;;;6.40;99.90;;;;;;5033344;28;20464;-69
2022/12/07 02:39:06;;;;;;;19.87;13.10;;;6.30;99.90;;;;;;5034586;28;20434;-69
2022/12/07 02:41:38;;;;;;;19.23;13.13;;;6.40;99.90;;;;;;5036932;28;20434;-69
2022/12/07 02:44:09;;;;;;;19.57;13.67;;;6.40;99.90;;;;;;5039268;28;20456;-70
2022/12/07 02:46:41;;;;;;;20.57;13.63;;;6.50;99.90;;;;;;5034906;28;20480;-70
2022/12/07 02:49:09;;;;;;;20.40;13.37;;;6.40;99.90;;;;;;5037084;28;20426;-69
2022/12/07 02:51:40;;;;;;;20.20;13.63;;;6.40;99.90;;;;;;5031700;28;20430;-70
2022/12/07 02:54:13;;;;;;;19.13;12.10;;;6.50;99.90;;;;;;5036702;28;20463;-69
2022/12/07 02:56:49;;;;;;;21.57;13.70;;;6.40;99.90;;;;;;5035424;28;20434;-69
2022/12/07 02:59:36;;;;;;;20.27;12.33;;;6.40;99.90;;;;;;5032506;28;20547;-69
2022/12/07 03:02:25;;;;;;;18.57;13.20;;;6.50;99.90;;;;;;5034110;28;20518;-68
2022/12/07 03:05:35;;;;;;;17.03;12.67;;;6.50;99.90;;;;;;5020494;28;20465;-68
2022/12/07 03:08:19;;;;;;;20.20;13.97;;;6.50;99.90;;;;;;4956661;28;20453;-68
2022/12/07 03:11:02;;;;;;;20.03;14.10;;;6.30;99.90;;;;;;5029030;28;20476;-69
2022/12/07 03:13:50;;;;;;;19.47;14.40;;;6.30;99.90;;;;;;5033944;28;20470;-69
2022/12/07 03:16:17;;;;;;;20.07;13.47;;;6.30;99.90;;;;;;5032150;28;20437;-69
2022/12/07 03:18:56;;;;;;;18.80;13.93;;;6.30;99.90;;;;;;5031755;28;20995;-69
2022/12/07 03:21:26;;;;;;;19.83;13.10;;;6.20;99.90;;;;;;5037467;28;20426;-68
2022/12/07 03:23:58;;;;;;;22.00;13.37;;;6.20;99.90;;;;;;5031474;28;21169;-69
2022/12/07 03:26:33;;;;;;;25.80;13.30;;;6.20;99.90;;;;;;5033683;28;20448;-69
2022/12/07 03:29:05;;;;;;;21.13;13.80;;;6.20;99.90;;;;;;5033569;28;20422;-69
2022/12/07 03:31:40;;;;;;;18.70;13.73;;;6.10;99.90;;;;;;5033466;28;20855;-69
2022/12/07 03:34:18;;;;;;;19.00;13.50;;;6.20;99.90;;;;;;5039306;28;20465;-69
2022/12/07 03:36:49;;;;;;;16.50;12.50;;;6.10;99.90;;;;;;5040507;28;20426;-69
2022/12/07 03:39:36;;;;;;;19.13;13.57;;;6.10;99.90;;;;;;5037761;28;20690;-69
2022/12/07 03:42:04;;;;;;;24.70;14.80;;;6.10;99.90;;;;;;5035995;28;20537;-69
2022/12/07 03:44:30;;;;;;;16.63;11.90;;;6.10;99.90;;;;;;5037287;28;20439;-69
2022/12/07 03:47:16;;;;;;;23.07;13.40;;;6.20;99.90;;;;;;5038377;28;20460;-69
2022/12/07 03:49:49;;;;;;;19.07;12.63;;;6.10;99.90;;;;;;5034751;28;20445;-69
2022/12/07 03:52:19;;;;;;;20.67;12.53;;;6.10;99.90;;;;;;5017081;28;21002;-69
2022/12/07 03:55:04;;;;;;;17.10;12.63;;;6.20;99.90;;;;;;5036913;28;20513;-69
2022/12/07 03:57:31;;;;;;;20.90;13.70;;;6.20;99.90;;;;;;5038079;28;20797;-69
2022/12/07 03:59:58;;;;;;;22.47;14.47;;;6.20;99.90;;;;;;5033412;28;21134;-69
2022/12/07 04:02:25;;;;;;;16.83;12.20;;;6.20;99.90;;;;;;5034369;28;20427;-69
2022/12/07 04:04:51;;;;;;;19.90;12.93;;;6.10;99.90;;;;;;5021765;28;20463;-69
2022/12/07 04:07:17;;;;;;;18.60;13.10;;;6.10;99.90;;;;;;5022598;28;20441;-69
2022/12/07 04:09:42;;;;;;;20.10;13.40;;;6.10;99.90;;;;;;5036074;28;20190;-69
2022/12/07 04:12:08;;;;;;;24.00;14.73;;;6.10;99.90;;;;;;5038864;28;20220;-69
2022/12/07 04:14:33;;;;;;;21.97;13.40;;;6.10;99.90;;;;;;5036113;28;20587;-69
2022/12/07 04:16:59;;;;;;;19.87;13.40;;;6.10;99.90;;;;;;5035879;28;20187;-69
2022/12/07 04:19:27;;;;;;;19.67;12.77;;;6.00;99.90;;;;;;5037669;28;20209;-70
2022/12/07 04:21:54;;;;;;;20.03;14.10;;;6.00;99.90;;;;;;5022073;28;20182;-69
2022/12/07 04:24:19;;;;;;;20.30;13.10;;;6.00;99.90;;;;;;5032901;28;20997;-69
2022/12/07 04:26:46;;;;;;;16.50;12.13;;;6.10;99.90;;;;;;5035757;28;21315;-69
2022/12/07 04:29:12;;;;;;;20.80;13.80;;;6.20;99.90;;;;;;5032014;28;20219;-69
2022/12/07 04:31:38;;;;;;;24.00;15.47;;;6.10;99.90;;;;;;5036575;28;20477;-69
2022/12/07 04:34:04;;;;;;;19.00;12.17;;;6.10;99.90;;;;;;5022056;28;20470;-70
2022/12/07 04:36:30;;;;;;;19.70;14.10;;;6.20;99.90;;;;;;5033635;28;21185;-69
2022/12/07 04:38:56;;;;;;;19.37;13.63;;;6.10;99.90;;;;;;5038711;28;20438;-69
2022/12/07 04:41:26;;;;;;;22.17;14.50;;;6.20;99.90;;;;;;5037284;28;20932;-69
2022/12/07 04:43:56;;;;;;;18.40;13.80;;;6.00;99.90;;;;;;5003695;28;20208;-69
2022/12/07 04:46:24;;;;;;;19.07;12.80;;;6.00;99.90;;;;;;5003822;28;20836;-69
2022/12/07 04:48:50;;;;;;;18.83;13.53;;;6.00;99.90;;;;;;5034130;28;20540;-69
2022/12/07 04:51:19;;;;;;;21.53;13.90;;;6.10;99.90;;;;;;5035615;28;21099;-69
2022/12/07 04:53:45;;;;;;;22.10;13.47;;;6.00;99.90;;;;;;5036797;28;20501;-69
2022/12/07 04:56:11;;;;;;;20.27;13.07;;;6.00;99.90;;;;;;5035363;28;20480;-69
2022/12/07 04:58:36;;;;;;;22.80;13.47;;;5.80;99.90;;;;;;5016830;28;20733;-68
2022/12/07 05:01:02;;;;;;;19.70;13.97;;;5.90;99.90;;;;;;5033502;28;20180;-69
2022/12/07 05:03:27;;;;;;;17.70;13.10;;;5.90;99.90;;;;;;5038300;28;20750;-68
2022/12/07 05:05:53;;;;;;;20.10;13.57;;;5.90;99.90;;;;;;5037238;28;20725;-69
2022/12/07 05:08:18;;;;;;;20.33;15.00;;;5.90;99.90;;;;;;5038748;28;20184;-69
2022/12/07 05:10:44;;;;;;;21.23;14.10;;;6.00;99.90;;;;;;5032668;28;20180;-69
2022/12/07 05:13:09;;;;;;;17.17;13.07;;;6.10;99.90;;;;;;5034031;28;20192;-68
2022/12/07 05:15:35;;;;;;;17.30;12.87;;;6.10;99.90;;;;;;5035862;28;20946;-69
2022/12/07 05:18:01;;;;;;;18.60;12.70;;;6.10;99.90;;;;;;5035451;28;20221;-69
2022/12/07 05:20:26;;;;;;;20.13;13.00;;;6.10;99.90;;;;;;5034272;28;20286;-68
2022/12/07 05:22:52;;;;;;;19.17;14.30;;;6.20;99.90;;;;;;5038331;28;20180;-68
2022/12/07 05:25:17;;;;;;;17.63;12.03;;;6.20;99.90;;;;;;5040621;28;20203;-68
2022/12/07 05:27:43;;;;;;;18.67;12.90;;;6.10;99.90;;;;;;5033288;28;20297;-69
2022/12/07 05:30:09;;;;;;;22.03;13.27;;;6.10;99.90;;;;;;5039295;28;20211;-68
2022/12/07 05:32:34;;;;;;;21.50;13.00;;;6.10;99.90;;;;;;5035569;28;20207;-68
2022/12/07 05:35:00;;;;;;;14.30;11.03;;;6.20;99.90;;;;;;5035168;28;20485;-68
2022/12/07 05:37:25;;;;;;;18.20;12.43;;;6.10;99.90;;;;;;5035706;28;20184;-68
2022/12/07 05:39:51;;;;;;;17.50;12.23;;;6.00;99.90;;;;;;5028796;28;20202;-68
2022/12/07 05:42:17;;;;;;;18.70;11.47;;;6.00;99.90;;;;;;5036770;28;20184;-67
2022/12/07 05:44:46;;;;;;;18.60;11.83;;;6.00;99.90;;;;;;5035600;28;20222;-68
2022/12/07 05:47:13;;;;;;;20.30;13.23;;;5.90;99.90;;;;;;5037749;28;20193;-68
2022/12/07 05:49:39;;;;;;;22.07;13.27;;;6.00;99.90;;;;;;5034020;28;20456;-68
2022/12/07 05:52:05;;;;;;;18.70;12.47;;;6.00;99.90;;;;;;5037810;28;20517;-71
2022/12/07 05:54:30;;;;;;;17.70;12.80;;;6.00;99.90;;;;;;5035191;28;20204;-68
2022/12/07 05:56:56;;;;;;;20.50;12.27;;;5.90;99.90;;;;;;5035681;28;20441;-68
2022/12/07 05:59:26;;;;;;;17.70;12.70;;;5.90;99.90;;;;;;5033288;28;20188;-68
2022/12/07 06:01:53;;;;;;;17.53;11.00;;;6.00;99.90;;;;;;5033855;28;20192;-68
2022/12/07 06:04:20;;;;;;;19.70;13.63;;;6.00;99.90;;;;;;5038013;28;20478;-69
2022/12/07 06:06:45;;;;;;;21.47;12.70;;;6.00;99.90;;;;;;5037668;28;20445;-68
2022/12/07 06:09:12;;;;;;;20.20;13.47;;;5.80;99.90;;;;;;5032338;28;21021;-69
2022/12/07 06:14:22;;;;;;;19.97;13.33;;;5.90;99.90;;;;;;5037663;28;20526;-69
2022/12/07 06:16:48;;;;;;;22.40;15.53;;;5.90;99.90;;;;;;5032821;28;20423;-68
2022/12/07 06:19:13;;;;;;;17.63;12.80;;;5.90;99.90;;;;;;5034656;28;20180;-68
2022/12/07 06:21:39;;;;;;;20.80;13.30;;;5.90;99.90;;;;;;5034935;28;20446;-68
2022/12/07 06:24:05;;;;;;;22.30;13.87;;;6.00;99.90;;;;;;5035132;28;20204;-69
2022/12/07 06:26:31;;;;;;;24.00;15.00;;;6.00;99.90;;;;;;5035393;28;20927;-69
2022/12/07 06:28:57;;;;;;;19.47;12.83;;;6.00;99.90;;;;;;5033200;28;20469;-69
2022/12/07 06:31:22;;;;;;;18.33;13.47;;;5.90;99.90;;;;;;5032622;28;20249;-69
2022/12/07 06:33:48;;;;;;;21.73;14.83;;;6.00;99.90;;;;;;5019820;28;21148;-70
2022/12/07 06:36:14;;;;;;;18.20;12.07;;;6.10;99.90;;;;;;5028335;28;20187;-68
2022/12/07 06:38:39;;;;;;;19.33;12.17;;;6.10;99.90;;;;;;5027319;28;20570;-70
2022/12/07 06:41:06;;;;;;;20.63;11.63;;;6.00;99.90;;;;;;5031437;28;20259;-70
2022/12/07 06:43:32;;;;;;;16.37;10.90;;;6.00;99.90;;;;;;5035041;28;20710;-69
2022/12/07 06:45:57;;;;;;;19.70;13.60;;;6.00;99.90;;;;;;5033131;28;20543;-70
2022/12/07 06:48:23;;;;;;;16.73;12.27;;;6.00;99.90;;;;;;5019986;28;20533;-68
2022/12/07 06:50:49;;;;;;;17.67;12.17;;;6.00;99.90;;;;;;5027374;28;20195;-68
2022/12/07 06:53:14;;;;;;;16.57;11.87;;;6.00;99.90;;;;;;5030525;28;20184;-68
2022/12/07 06:55:40;;;;;;;18.10;12.40;;;5.90;99.90;;;;;;5028367;28;20442;-68
2022/12/07 06:58:05;;;;;;;18.63;11.73;;;5.90;99.90;;;;;;5018387;28;20180;-68
2022/12/07 07:00:31;;;;;;;16.77;12.07;;;5.80;99.90;;;;;;5031966;28;20185;-68
2022/12/07 07:02:56;;;;;;;15.40;11.23;;;5.80;99.90;;;;;;5031915;28;20609;-68
2022/12/07 07:05:22;;;;;;;19.30;12.70;;;5.80;99.90;;;;;;5032334;28;20492;-68
2022/12/07 07:07:51;;;;;;;18.93;13.20;;;5.80;99.90;;;;;;5034842;28;20245;-68
2022/12/07 07:10:16;;;;;;;18.13;11.93;;;5.70;99.90;;;;;;5031669;28;20579;-69
2022/12/07 07:12:42;;;;;;;19.73;12.67;;;5.60;99.90;;;;;;5036329;28;20443;-69
2022/12/07 07:15:08;;;;;;;17.27;12.47;;;5.60;99.90;;;;;;5040767;28;20215;-69
2022/12/07 07:17:33;;;;;;;18.23;12.80;;;5.60;99.90;;;;;;5037288;28;20214;-69
2022/12/07 07:19:59;;;;;;;15.13;10.77;;;5.60;99.90;;;;;;5037412;28;20853;-69
2022/12/07 07:22:25;;;;;;;16.97;12.60;;;5.70;99.90;;;;;;5018238;28;20687;-68
2022/12/07 07:24:50;;;;;;;17.70;10.83;;;5.70;99.90;;;;;;5038746;28;20635;-67
2022/12/07 07:27:16;;;;;;;15.50;10.53;;;5.80;99.90;;;;;;5037880;28;20199;-68
2022/12/07 07:29:42;;;;;;;18.40;12.20;;;5.80;99.90;;;;;;5040896;28;20614;-69
2022/12/07 07:32:07;;;;;;;17.30;12.10;;;5.80;99.90;;;;;;5042186;28;20261;-71
2022/12/07 07:34:33;;;;;;;20.73;11.80;;;5.80;99.90;;;;;;5040481;28;20473;-68
2022/12/07 07:36:59;;;;;;;18.87;11.50;;;5.80;99.90;;;;;;5040926;28;20641;-69
2022/12/07 07:39:24;;;;;;;18.63;11.80;;;5.80;99.90;;;;;;5039511;28;20190;-69
2022/12/07 07:41:50;;;;;;;20.20;11.20;;;5.80;99.90;;;;;;5032942;28;20235;-70
2022/12/07 07:44:16;;;;;;;17.43;11.80;;;5.80;99.90;;;;;;5021784;28;20207;-72
2022/12/07 07:46:41;;;;;;;19.13;12.77;;;5.80;99.90;;;;;;5042081;28;20196;-70
2022/12/07 07:49:09;;;;;;;19.00;12.10;;;5.80;99.90;;;;;;5020129;28;20186;-69
2022/12/07 07:51:34;;;;;;;18.53;11.60;;;5.70;99.90;;;;;;5038782;28;20184;-71
2022/12/07 07:54:00;;;;;;;15.90;11.70;;;5.70;99.90;;;;;;5041565;28;20535;-70
2022/12/07 07:56:25;;;;;;;17.90;11.93;;;5.80;99.90;;;;;;5043806;28;20194;-69
2022/12/07 07:58:54;;;;;;;20.40;11.70;;;5.80;99.90;;;;;;5043712;28;20210;-70
2022/12/07 08:01:20;;;;;;;18.80;12.30;;;5.80;99.90;;;;;;5042352;28;20203;-70
2022/12/07 08:03:49;;;;;;;19.57;12.20;;;5.80;99.90;;;;;;5036557;28;20461;-73
2022/12/07 08:06:15;;;;;;;17.77;12.00;;;5.80;99.90;;;;;;5041352;28;20183;-74
2022/12/07 08:08:41;;;;;;;17.37;10.47;;;5.70;99.90;;;;;;5036519;28;20453;-75
2022/12/07 08:11:10;;;;;;;15.80;11.17;;;5.80;99.90;;;;;;5040497;28;20184;-74
2022/12/07 08:13:36;;;;;;;20.43;10.63;;;5.80;99.90;;;;;;5040870;28;20493;-73
2022/12/07 08:16:08;;;;;;;21.97;11.20;;;5.80;99.90;;;;;;5044669;28;20425;-74
2022/12/07 08:18:38;;;;;;;17.87;11.27;;;5.80;99.90;;;;;;5035554;28;20450;-72
2022/12/07 08:21:04;;;;;;;16.87;11.30;;;5.80;99.90;;;;;;5039585;28;20418;-72
2022/12/07 08:23:30;;;;;;;14.67;10.33;;;5.80;99.90;;;;;;5037614;28;20488;-70
2022/12/07 08:26:01;;;;;;;15.47;10.70;;;5.90;99.90;;;;;;5035220;28;20198;-69
2022/12/07 08:28:27;;;;;;;16.70;11.23;;;5.90;99.90;;;;;;5035077;28;20451;-69
2022/12/07 08:30:57;;;;;;;15.47;9.70;;;5.90;99.90;;;;;;5018258;28;20481;-71
2022/12/07 08:33:23;;;;;;;15.50;9.90;;;5.80;99.90;;;;;;5032762;28;20478;-71
2022/12/07 08:35:49;;;;;;;16.43;9.97;;;5.80;99.90;;;;;;5032999;28;20535;-71
2022/12/07 08:38:14;;;;;;;14.60;9.50;;;5.80;99.90;;;;;;5022388;28;20229;-71
2022/12/07 08:40:40;;;;;;;14.43;9.67;;;5.80;99.90;;;;;;5034391;28;20212;-70
2022/12/07 08:43:05;;;;;;;14.67;9.57;;;5.90;99.90;;;;;;5037472;28;20171;-70
2022/12/07 08:45:35;;;;;;;11.93;9.17;;;6.00;99.90;;;;;;5036707;28;20680;-70
2022/12/07 08:48:08;;;;;;;14.93;10.33;;;6.00;99.90;;;;;;5017628;28;20192;-71
2022/12/07 08:50:36;;;;;;;15.53;10.57;;;6.10;99.90;;;;;;5034905;28;20475;-71
2022/12/07 08:53:04;;;;;;;15.07;9.53;;;5.90;99.90;;;;;;5034688;28;20430;-71
2022/12/07 08:55:31;;;;;;;18.43;10.13;;;5.90;99.90;;;;;;5035126;28;20568;-72
2022/12/07 08:57:58;;;;;;;15.50;9.80;;;6.00;99.90;;;;;;5033502;28;20795;-71
2022/12/07 09:00:23;;;;;;;17.63;10.90;;;6.00;99.90;;;;;;5032680;28;20644;-72
2022/12/07 09:02:49;;;;;;;15.73;9.60;;;5.90;99.90;;;;;;5033183;28;21045;-71
2022/12/07 09:05:15;;;;;;;13.20;8.53;;;5.90;99.90;;;;;;5035532;28;20211;-71
2022/12/07 09:07:42;;;;;;;16.13;10.00;;;5.90;99.90;;;;;;5036741;28;20332;-71
2022/12/07 09:10:08;;;;;;;15.50;9.80;;;5.80;99.90;;;;;;5035667;28;20231;-71
2022/12/07 09:12:34;;;;;;;14.20;8.67;;;5.80;99.90;;;;;;5036385;28;21164;-72
2022/12/07 09:15:00;;;;;;;14.77;10.00;;;5.90;99.90;;;;;;5033553;28;20473;-70
2022/12/07 09:17:26;;;;;;;14.20;9.60;;;5.90;99.90;;;;;;5035599;28;20230;-71
2022/12/07 09:19:52;;;;;;;16.00;10.10;;;5.90;99.90;;;;;;5021007;28;20537;-71
2022/12/07 09:22:18;;;;;;;16.00;10.33;;;6.00;99.90;;;;;;5035354;28;20505;-71
2022/12/07 09:24:45;;;;;;;16.23;9.53;;;6.10;99.90;;;;;;5032880;28;20265;-71
2022/12/07 09:27:11;;;;;;;15.67;10.03;;;6.20;99.90;;;;;;5036566;28;20370;-72
2022/12/07 09:29:37;;;;;;;16.30;10.50;;;6.20;99.90;;;;;;5035146;28;20426;-73
2022/12/07 09:32:02;;;;;;;14.97;10.37;;;6.30;99.90;;;;;;5036577;28;20791;-71
2022/12/07 09:34:31;;;;;;;12.77;9.67;;;6.30;99.90;;;;;;5036900;28;20215;-70
2022/12/07 09:36:57;;;;;;;14.53;10.60;;;6.30;99.90;;;;;;5035949;28;20188;-74
2022/12/07 09:39:22;;;;;;;16.90;9.80;;;6.30;99.90;;;;;;5036551;28;20525;-72
2022/12/07 09:41:48;;;;;;;12.33;9.07;;;6.40;99.90;;;;;;5019527;28;20184;-72
2022/12/07 09:44:24;;;;;;;12.20;9.20;;;6.40;99.90;;;;;;5035404;28;20338;-70
2022/12/07 09:46:50;;;;;;;15.70;9.80;;;6.30;99.90;;;;;;5036208;28;20540;-73
2022/12/07 09:49:22;;;;;;;16.13;9.93;;;6.20;99.90;;;;;;5030456;28;20434;-73
2022/12/07 09:51:58;;;;;;;13.40;9.20;;;6.30;99.90;;;;;;5037973;28;20516;-71
2022/12/07 09:54:24;;;;;;;16.40;10.00;;;6.40;99.90;;;;;;5034684;28;20462;-73
2022/12/07 09:56:50;;;;;;;14.57;10.30;;;6.40;99.90;;;;;;5038229;28;20426;-71
2022/12/07 09:59:19;;;;;;;13.50;9.23;;;6.50;99.90;;;;;;5036951;28;20655;-72
2022/12/07 10:01:47;;;;;;;16.10;9.67;;;6.50;99.90;;;;;;5036605;28;20595;-71
2022/12/07 10:04:23;;;;;;;14.80;10.00;;;6.50;99.90;;;;;;5035409;28;20990;-73
2022/12/07 10:06:50;;;;;;;15.27;10.10;;;6.50;99.90;;;;;;5033509;28;20556;-72
2022/12/07 10:09:18;;;;;;;16.90;9.57;;;6.60;99.90;;;;;;5035250;28;20442;-71
2022/12/07 10:12:03;;;;;;;13.17;9.60;;;6.60;99.90;;;;;;5035689;28;20466;-71
2022/12/07 10:14:31;;;;;;;15.37;9.50;;;6.70;99.90;;;;;;5034492;28;20543;-71
2022/12/07 10:16:57;;;;;;;18.73;9.87;;;6.60;99.90;;;;;;5033308;28;20981;-71
2022/12/07 10:19:31;;;;;;;14.00;10.00;;;6.60;99.90;;;;;;5037360;28;20434;-70
2022/12/07 10:22:08;;;;;;;13.00;9.23;;;6.70;99.90;;;;;;5032136;28;20179;-69
2022/12/07 10:24:33;;;;;;;15.07;10.40;;;6.70;99.90;;;;;;5033019;28;20468;-72
2022/12/07 10:26:59;;;;;;;15.20;9.63;;;6.70;99.90;;;;;;5032255;28;20707;-70
2022/12/07 10:29:33;;;;;;;16.77;10.47;;;6.70;99.90;;;;;;5036597;28;20184;-71
2022/12/07 10:32:24;;;;;;;13.67;9.00;;;6.80;99.90;;;;;;5018266;28;20568;-70
2022/12/07 10:34:50;;;;;;;13.70;9.73;;;6.80;99.90;;;;;;5032399;28;20477;-71
2022/12/07 10:37:18;;;;;;;16.67;9.63;;;6.80;99.90;;;;;;5036458;28;20425;-71
2022/12/07 10:39:47;;;;;;;15.50;9.53;;;6.80;99.90;;;;;;5028681;28;20189;-71
2022/12/07 10:42:30;;;;;;;13.83;8.43;;;6.80;99.90;;;;;;5034864;28;20932;-72
2022/12/07 10:45:16;;;;;;;13.90;8.77;;;6.80;99.90;;;;;;5033533;28;20549;-72
2022/12/07 10:47:48;;;;;;;15.20;9.33;;;6.80;99.90;;;;;;5034905;28;20844;-72
2022/12/07 10:50:25;;;;;;;15.30;9.80;;;6.80;99.90;;;;;;5032674;28;20963;-72
2022/12/07 10:53:16;;;;;;;16.50;8.67;;;6.70;99.90;;;;;;5034194;28;20448;-71
2022/12/07 10:55:54;;;;;;;12.93;9.43;;;6.70;99.90;;;;;;5034097;28;20484;-68
2022/12/07 10:58:30;;;;;;;14.33;8.80;;;6.70;99.90;;;;;;5036568;28;20857;-68
2022/12/07 11:01:30;;;;;;;15.90;9.53;;;6.60;99.90;;;;;;5021707;28;21739;-68
2022/12/07 11:04:07;;;;;;;13.40;9.77;;;6.60;99.90;;;;;;5031238;28;20460;-68
2022/12/07 11:06:44;;;;;;;14.97;10.17;;;6.60;99.90;;;;;;5036587;28;20426;-68
2022/12/07 11:09:43;;;;;;;13.40;9.07;;;6.60;99.90;;;;;;5029979;28;20860;-67
2022/12/07 11:12:27;;;;;;;13.87;8.60;;;6.60;99.90;;;;;;5034983;28;20799;-67
2022/12/07 11:15:14;;;;;;;14.90;9.67;;;6.60;99.90;;;;;;5028143;28;20580;-68
2022/12/07 11:18:01;;;;;;;12.93;9.03;;;6.60;99.90;;;;;;5031943;28;20470;-68
2022/12/07 11:20:32;;;;;;;16.93;10.10;;;6.60;99.90;;;;;;5034746;28;21354;-68
2022/12/07 11:23:13;;;;;;;16.07;9.87;;;6.70;99.90;;;;;;5033728;28;21000;-67
2022/12/07 11:26:06;;;;;;;14.70;9.57;;;6.70;99.90;;;;;;5034334;28;20434;-68
2022/12/07 11:28:46;;;;;;;16.47;10.53;;;6.70;99.90;;;;;;5031668;28;20426;-68
2022/12/07 11:31:32;;;;;;;16.10;10.60;;;6.60;99.90;;;;;;5031904;28;20426;-69
2022/12/07 11:34:17;;;;;;;15.80;10.10;;;6.70;99.90;;;;;;5029190;28;20462;-72
2022/12/07 11:36:51;;;;;;;16.20;11.30;;;6.80;99.90;;;;;;5028619;28;22405;-69
2022/12/07 11:39:32;;;;;;;19.03;11.57;;;6.80;99.90;;;;;;5029720;28;20446;-70
2022/12/07 11:42:10;;;;;;;14.77;9.50;;;6.80;99.90;;;;;;5028078;28;20573;-69
2022/12/07 11:45:02;;;;;;;17.23;11.03;;;6.80;99.90;;;;;;5033829;28;20522;-69
2022/12/07 11:47:46;;;;;;;16.20;11.70;;;6.70;99.90;;;;;;5033612;28;20497;-69
2022/12/07 11:50:32;;;;;;;16.40;11.23;;;6.70;99.90;;;;;;5030371;28;20495;-69
2022/12/07 11:53:16;;;;;;;21.33;11.70;;;6.80;99.90;;;;;;5032593;28;20437;-69
2022/12/07 11:55:52;;;;;;;15.70;10.70;;;6.80;99.90;;;;;;5035482;28;20442;-69
2022/12/07 11:58:33;;;;;;;18.27;11.47;;;6.80;99.90;;;;;;5038331;28;20434;-69
2022/12/07 12:01:23;;;;;;;17.80;11.40;;;6.70;99.90;;;;;;5036973;28;20442;-69
2022/12/07 12:03:52;;;;;;;17.70;11.70;;;6.70;99.90;;;;;;5035338;28;20441;-69
2022/12/07 12:06:19;;;;;;;15.70;10.03;;;6.70;99.90;;;;;;5037588;28;20476;-69
2022/12/07 12:09:11;;;;;;;18.77;11.93;;;6.80;99.90;;;;;;5035964;28;20422;-68
2022/12/07 12:11:59;;;;;;;18.53;12.17;;;6.80;99.90;;;;;;5037090;28;20434;-68
2022/12/07 12:14:47;;;;;;;18.33;12.47;;;6.90;99.90;;;;;;5031775;28;20462;-69
2022/12/07 12:17:22;;;;;;;15.30;10.07;;;7.00;99.90;;;;;;5035722;28;21121;-69
2022/12/07 12:20:15;;;;;;;18.60;10.80;;;7.00;99.90;;;;;;5023779;28;20592;-68
2022/12/07 12:22:55;;;;;;;16.40;11.83;;;7.10;99.90;;;;;;5037699;28;20426;-68
2022/12/07 12:25:42;;;;;;;17.53;11.23;;;7.10;99.90;;;;;;5034619;28;20843;-70
2022/12/07 12:28:23;;;;;;;19.37;11.83;;;7.00;99.90;;;;;;5029898;28;20469;-71
2022/12/07 12:31:09;;;;;;;19.87;10.80;;;7.00;99.90;;;;;;5030592;28;20415;-70
2022/12/07 12:33:36;;;;;;;16.53;10.70;;;7.10;99.90;;;;;;5029372;28;20596;-70
2022/12/07 12:36:25;;;;;;;15.27;11.00;;;7.00;99.90;;;;;;5027789;28;20457;-71
2022/12/07 12:39:18;;;;;;;19.07;11.23;;;7.00;99.90;;;;;;5030820;28;20489;-70
2022/12/07 12:44:15;;;;;;;18.20;11.70;;;7.00;99.90;;;;;;5037288;28;20465;-70
2022/12/07 12:46:51;;;;;;;16.67;12.07;;;7.10;99.90;;;;;;5038113;28;20437;-69
2022/12/07 12:49:20;;;;;;;15.87;11.33;;;7.10;99.90;;;;;;5036802;28;20434;-69
2022/12/07 12:51:51;;;;;;;17.30;10.43;;;7.00;99.90;;;;;;5034474;28;20430;-69
2022/12/07 12:54:26;;;;;;;21.07;12.03;;;7.00;99.90;;;;;;5036734;28;20552;-69
2022/12/07 12:57:17;;;;;;;17.50;12.10;;;7.10;99.90;;;;;;5034210;28;20501;-69
2022/12/07 12:59:57;;;;;;;16.17;11.80;;;7.10;99.90;;;;;;5035710;28;20442;-69
2022/12/07 13:02:25;;;;;;;23.93;11.63;;;7.10;99.90;;;;;;5031380;28;20448;-70